Time;durP1;ratioP1;P1;durP2;ratioP2;P2;SDS_P1;SDS_P2;PMS_P1;PMS_P2;Temp;Humidity;BMP_temperature;BMP_pressure;BME280_temperature;BME280_humidity;BME280_pressure;Samples;Min_cycle;Max_cycle;Signal;HPM_P1;HPM_P2
2022/10/21 00:00:33;;;;;;;21.70;10.10;;;18.30;99.90;;;;;;5059896;28;25105;-74
2022/10/21 00:02:59;;;;;;;23.52;11.27;;;18.40;99.90;;;;;;5062614;28;25049;-73
2022/10/21 00:05:27;;;;;;;17.92;9.63;;;18.40;99.90;;;;;;5078243;28;25075;-73
2022/10/21 00:07:53;;;;;;;18.88;10.60;;;18.10;99.90;;;;;;5076019;28;25157;-73
2022/10/21 00:10:19;;;;;;;20.42;9.98;;;18.30;99.90;;;;;;5074249;28;25106;-75
2022/10/21 00:12:44;;;;;;;26.48;10.48;;;18.20;99.90;;;;;;5073350;28;25137;-73
2022/10/21 00:15:10;;;;;;;26.30;12.23;;;18.30;99.90;;;;;;5074763;28;25114;-73
2022/10/21 00:17:42;;;;;;;20.27;10.27;;;18.30;99.90;;;;;;5073287;28;25065;-74
2022/10/21 00:20:09;;;;;;;22.60;10.98;;;18.40;99.90;;;;;;5074725;28;25065;-73
2022/10/21 00:22:36;;;;;;;24.80;11.20;;;18.50;99.90;;;;;;5073254;28;25072;-73
2022/10/21 00:25:02;;;;;;;20.48;10.25;;;18.40;99.90;;;;;;5078833;28;25138;-74
2022/10/21 00:27:28;;;;;;;23.75;10.70;;;18.30;99.90;;;;;;5070300;28;25151;-73
2022/10/21 00:29:54;;;;;;;20.45;9.98;;;18.30;99.90;;;;;;5064140;28;25075;-73
2022/10/21 00:32:19;;;;;;;23.38;10.90;;;18.30;99.90;;;;;;5069651;28;25127;-74
2022/10/21 00:34:45;;;;;;;21.95;10.52;;;18.30;99.90;;;;;;5065022;28;25092;-74
2022/10/21 00:37:12;;;;;;;21.67;10.50;;;18.30;99.90;;;;;;5065835;28;25137;-73
2022/10/21 00:39:38;;;;;;;27.55;11.35;;;18.50;99.90;;;;;;5074863;28;25148;-74
2022/10/21 00:42:12;;;;;;;31.55;12.15;;;18.40;99.90;;;;;;5073740;28;25087;-72
2022/10/21 00:44:39;;;;;;;24.33;11.32;;;18.40;99.90;;;;;;5069841;28;25060;-72
2022/10/21 00:47:09;;;;;;;26.02;11.52;;;18.30;99.90;;;;;;5072189;28;25143;-71
2022/10/21 00:49:48;;;;;;;20.45;10.68;;;18.40;99.90;;;;;;5068852;28;25054;-73
2022/10/21 00:52:18;;;;;;;22.75;10.25;;;18.30;99.90;;;;;;5079148;28;25067;-73
2022/10/21 00:54:46;;;;;;;21.58;9.93;;;18.40;99.90;;;;;;5052705;28;25066;-73
2022/10/21 00:57:13;;;;;;;21.70;9.13;;;18.30;99.90;;;;;;5071281;28;25143;-72
2022/10/21 00:59:43;;;;;;;21.95;10.27;;;18.30;99.90;;;;;;5072149;28;25079;-73
2022/10/21 01:02:08;;;;;;;20.42;9.38;;;18.40;99.90;;;;;;5075174;28;25089;-73
2022/10/21 01:04:34;;;;;;;20.52;8.80;;;18.50;99.90;;;;;;5071622;28;25091;-73
2022/10/21 01:07:01;;;;;;;19.63;9.20;;;18.60;99.90;;;;;;5072508;28;25152;-72
2022/10/21 01:09:29;;;;;;;17.55;8.02;;;18.40;99.90;;;;;;5072739;28;25069;-73
2022/10/21 01:11:55;;;;;;;13.07;7.70;;;18.40;99.90;;;;;;5064269;28;25134;-73
2022/10/21 01:14:37;;;;;;;17.55;8.68;;;18.30;99.90;;;;;;5060855;28;25063;-72
2022/10/21 01:17:20;;;;;;;20.33;8.47;;;18.40;99.90;;;;;;5063109;28;25048;-72
2022/10/21 01:20:04;;;;;;;12.80;7.63;;;18.20;99.90;;;;;;5066406;28;25149;-72
2022/10/21 01:22:51;;;;;;;18.30;8.48;;;18.20;99.90;;;;;;5061488;28;25062;-72
2022/10/21 01:25:55;;;;;;;21.25;8.00;;;18.20;99.90;;;;;;5065865;28;25171;-72
2022/10/21 01:28:39;;;;;;;16.40;8.63;;;18.30;99.90;;;;;;5008207;28;25074;-72
2022/10/21 01:31:18;;;;;;;13.48;6.93;;;18.30;99.90;;;;;;5066322;28;25076;-72
2022/10/21 01:34:03;;;;;;;15.85;7.85;;;18.30;99.90;;;;;;5074970;28;25068;-74
2022/10/21 01:36:50;;;;;;;13.52;6.85;;;18.20;99.90;;;;;;5070018;28;25082;-73
2022/10/21 01:39:24;;;;;;;16.33;6.13;;;18.20;99.90;;;;;;5057866;28;25058;-73
2022/10/21 01:42:14;;;;;;;14.68;6.20;;;18.20;99.90;;;;;;5071016;28;25113;-72
2022/10/21 01:44:53;;;;;;;17.55;6.32;;;18.10;99.90;;;;;;5081565;28;25063;-74
2022/10/21 01:47:37;;;;;;;14.65;7.30;;;18.00;99.90;;;;;;5067603;28;25143;-72
2022/10/21 01:50:31;;;;;;;14.15;5.85;;;18.10;99.90;;;;;;5043624;28;25063;-74
2022/10/21 01:53:01;;;;;;;11.90;6.30;;;18.20;99.90;;;;;;5037104;28;25135;-72
2022/10/21 01:55:30;;;;;;;9.50;5.88;;;18.10;99.90;;;;;;5078185;28;25109;-72
2022/10/21 01:58:03;;;;;;;14.05;6.18;;;18.20;99.90;;;;;;5070495;28;25141;-72
2022/10/21 02:00:32;;;;;;;11.98;4.57;;;18.10;99.90;;;;;;5070082;28;25100;-73
2022/10/21 02:03:00;;;;;;;16.60;5.75;;;18.20;99.90;;;;;;5088398;28;25054;-74
2022/10/21 02:05:31;;;;;;;9.57;5.30;;;18.10;99.90;;;;;;5071800;28;25071;-73
2022/10/21 02:07:57;;;;;;;16.23;5.95;;;18.10;99.90;;;;;;5068231;28;25131;-73
2022/10/21 02:10:25;;;;;;;15.52;6.47;;;18.10;99.90;;;;;;5077461;28;25054;-72
2022/10/21 02:12:55;;;;;;;16.08;5.95;;;18.10;99.90;;;;;;5063354;28;25101;-72
2022/10/21 02:15:23;;;;;;;15.20;5.88;;;18.10;99.90;;;;;;5072162;28;25053;-73
2022/10/21 02:17:57;;;;;;;8.32;4.93;;;18.10;99.90;;;;;;5068891;28;25059;-73
2022/10/21 02:20:25;;;;;;;13.00;6.65;;;18.10;99.90;;;;;;5075961;28;25050;-73
2022/10/21 02:22:51;;;;;;;11.35;5.88;;;18.00;99.90;;;;;;5052506;28;25134;-73
2022/10/21 02:25:22;;;;;;;12.48;5.93;;;17.90;99.90;;;;;;5071236;28;25093;-73
2022/10/21 02:27:48;;;;;;;13.00;5.23;;;18.10;99.90;;;;;;5072938;28;25068;-71
2022/10/21 02:30:14;;;;;;;10.55;6.25;;;18.00;99.90;;;;;;5060826;28;25155;-73
2022/10/21 02:33:02;;;;;;;12.00;4.90;;;18.10;99.90;;;;;;5062129;28;25053;-73
2022/10/21 02:36:15;;;;;;;11.63;5.20;;;18.00;99.90;;;;;;5060543;28;25062;-73
2022/10/21 02:38:43;;;;;;;;;;;18.10;99.90;;;;;;4973904;28;25054;-73
2022/10/21 02:41:12;;;;;;;11.95;5.80;;;18.00;99.90;;;;;;4964767;28;25130;-73
2022/10/21 02:43:49;;;;;;;9.57;5.25;;;18.00;99.90;;;;;;5017174;28;25125;-73
2022/10/21 02:46:15;;;;;;;11.98;5.03;;;18.00;99.90;;;;;;5057330;28;25068;-73
2022/10/21 02:48:45;;;;;;;14.02;5.18;;;17.80;99.90;;;;;;5050812;28;25138;-73
2022/10/21 02:51:12;;;;;;;9.38;5.25;;;17.80;99.90;;;;;;5057013;28;25158;-72
2022/10/21 02:53:37;;;;;;;13.38;6.47;;;17.80;99.90;;;;;;5056572;28;25061;-72
2022/10/21 02:56:03;;;;;;;10.50;4.93;;;17.90;99.90;;;;;;5056843;28;25055;-72
2022/10/21 02:58:29;;;;;;;8.77;4.97;;;17.80;99.90;;;;;;5058767;28;25063;-73
2022/10/21 03:00:55;;;;;;;13.40;5.25;;;18.00;99.90;;;;;;5055583;28;25108;-72
2022/10/21 03:03:21;;;;;;;13.48;6.30;;;17.90;99.90;;;;;;5057564;28;25126;-72
2022/10/21 03:05:47;;;;;;;13.70;5.90;;;17.80;99.90;;;;;;5052109;28;25108;-73
2022/10/21 03:08:13;;;;;;;13.05;6.05;;;17.70;99.90;;;;;;5053271;28;25055;-72
2022/10/21 03:10:38;;;;;;;12.60;6.60;;;17.50;99.90;;;;;;5053109;28;25149;-73
2022/10/21 03:13:04;;;;;;;10.43;5.47;;;17.50;99.90;;;;;;5036322;28;25071;-72
2022/10/21 03:15:30;;;;;;;11.55;5.50;;;17.60;99.90;;;;;;5048584;28;25083;-73
2022/10/21 03:17:55;;;;;;;12.15;5.63;;;17.60;99.90;;;;;;5052104;28;25153;-73
2022/10/21 03:20:21;;;;;;;9.05;4.93;;;17.70;99.90;;;;;;5051507;28;25070;-72
2022/10/21 03:22:47;;;;;;;17.77;5.15;;;17.60;99.90;;;;;;5050575;28;25063;-72
2022/10/21 03:25:13;;;;;;;10.70;5.18;;;17.60;99.90;;;;;;5061814;28;25067;-72
2022/10/21 03:27:39;;;;;;;8.48;4.97;;;17.60;99.90;;;;;;5050112;28;25142;-73
2022/10/21 03:30:06;;;;;;;11.77;6.10;;;17.70;99.90;;;;;;5055998;28;25132;-73
2022/10/21 03:32:32;;;;;;;12.10;4.85;;;17.70;99.90;;;;;;5035579;28;25127;-73
2022/10/21 03:34:57;;;;;;;12.38;5.93;;;17.50;99.90;;;;;;5047647;28;25056;-73
2022/10/21 03:37:23;;;;;;;13.98;5.47;;;17.60;99.90;;;;;;5060741;28;25055;-73
2022/10/21 03:39:49;;;;;;;12.63;4.95;;;17.40;99.90;;;;;;5063818;28;25064;-73
2022/10/21 03:42:14;;;;;;;11.82;5.15;;;17.10;99.90;;;;;;5057333;28;25075;-71
2022/10/21 03:44:40;;;;;;;10.25;4.97;;;17.20;99.90;;;;;;5057865;28;25057;-72
2022/10/21 03:47:06;;;;;;;9.48;5.50;;;17.20;99.90;;;;;;5060684;28;25075;-73
2022/10/21 03:49:31;;;;;;;10.52;5.20;;;17.20;99.90;;;;;;5059717;28;25057;-73
2022/10/21 03:51:57;;;;;;;13.95;5.50;;;17.10;99.90;;;;;;5066715;28;25077;-73
2022/10/21 03:54:23;;;;;;;9.93;5.47;;;17.20;99.90;;;;;;5068516;28;25054;-73
2022/10/21 03:56:48;;;;;;;10.70;5.22;;;17.10;99.90;;;;;;5051133;28;25062;-73
2022/10/21 03:59:14;;;;;;;12.23;5.35;;;17.00;99.90;;;;;;5058788;28;25141;-73
2022/10/21 04:01:40;;;;;;;8.40;5.28;;;16.90;99.90;;;;;;5070933;28;25053;-73
2022/10/21 04:04:05;;;;;;;13.18;5.57;;;16.90;99.90;;;;;;5063149;28;25106;-73
2022/10/21 04:06:31;;;;;;;12.50;5.47;;;17.00;99.90;;;;;;5065232;28;25115;-72
2022/10/21 04:08:57;;;;;;;13.50;5.13;;;16.70;99.90;;;;;;5055602;28;25126;-74
2022/10/21 04:11:23;;;;;;;12.13;5.47;;;16.70;99.90;;;;;;5064000;28;25148;-73
2022/10/21 04:13:49;;;;;;;11.05;5.15;;;16.70;99.90;;;;;;5076244;28;25065;-72
2022/10/21 04:16:17;;;;;;;11.43;4.97;;;16.60;99.90;;;;;;5067482;28;25099;-72
2022/10/21 04:18:43;;;;;;;12.45;5.70;;;16.70;99.90;;;;;;5080210;28;25114;-74
2022/10/21 04:21:08;;;;;;;9.88;4.90;;;16.70;99.90;;;;;;5069341;28;25064;-73
2022/10/21 04:23:34;;;;;;;15.88;5.28;;;16.70;99.90;;;;;;5071242;28;25112;-73
2022/10/21 04:26:00;;;;;;;13.85;4.55;;;16.70;99.90;;;;;;5052395;28;25052;-74
2022/10/21 04:28:25;;;;;;;9.65;4.50;;;16.70;99.90;;;;;;5057436;28;25126;-74
2022/10/21 04:30:51;;;;;;;10.30;4.55;;;16.60;99.90;;;;;;5072920;28;25072;-72
2022/10/21 04:33:17;;;;;;;10.20;5.03;;;16.50;99.90;;;;;;5049589;28;25091;-72
2022/10/21 04:35:43;;;;;;;11.15;5.15;;;16.50;99.90;;;;;;5050876;28;25150;-72
2022/10/21 04:38:08;;;;;;;9.70;5.78;;;16.50;99.90;;;;;;5050198;28;25060;-74
2022/10/21 04:40:34;;;;;;;11.63;6.35;;;16.60;99.90;;;;;;5077091;28;25101;-74
2022/10/21 04:43:00;;;;;;;8.98;5.22;;;16.60;99.90;;;;;;5071681;28;25091;-74
2022/10/21 04:45:26;;;;;;;9.38;4.80;;;16.70;99.90;;;;;;5074728;28;25126;-73
2022/10/21 04:47:51;;;;;;;11.40;5.43;;;16.70;99.90;;;;;;5065985;28;25090;-74
2022/10/21 04:50:17;;;;;;;10.88;4.90;;;16.70;99.90;;;;;;5066579;28;25064;-72
2022/10/21 04:52:43;;;;;;;17.52;5.38;;;16.70;99.90;;;;;;5073307;28;25103;-73
2022/10/21 04:55:08;;;;;;;9.00;5.57;;;16.60;99.90;;;;;;5072912;28;25063;-71
2022/10/21 04:57:34;;;;;;;15.70;5.80;;;16.60;99.90;;;;;;5078618;28;25065;-73
2022/10/21 05:00:00;;;;;;;10.55;5.35;;;16.70;99.90;;;;;;5076980;28;25085;-72
2022/10/21 05:02:26;;;;;;;10.95;5.85;;;16.50;99.90;;;;;;5061913;28;25074;-72
2022/10/21 05:04:51;;;;;;;13.18;5.63;;;16.60;99.90;;;;;;5050336;28;25126;-73
2022/10/21 05:07:17;;;;;;;10.50;5.70;;;16.50;99.90;;;;;;5070778;28;25076;-73
2022/10/21 05:09:42;;;;;;;12.15;5.25;;;16.70;99.90;;;;;;5064713;28;25077;-72
2022/10/21 05:12:08;;;;;;;8.32;4.63;;;16.80;99.90;;;;;;5066456;28;25060;-73
2022/10/21 05:14:34;;;;;;;8.82;4.75;;;16.80;99.90;;;;;;5070168;28;25071;-73
2022/10/21 05:17:00;;;;;;;9.77;4.95;;;16.90;99.90;;;;;;5060501;28;25063;-73
2022/10/21 05:19:25;;;;;;;11.20;5.93;;;16.90;99.90;;;;;;5072381;28;25123;-73
2022/10/21 05:21:51;;;;;;;8.90;4.60;;;16.80;99.90;;;;;;5070358;28;25127;-72
2022/10/21 05:24:17;;;;;;;10.65;5.40;;;16.60;99.90;;;;;;5071256;28;25112;-72
2022/10/21 05:26:42;;;;;;;13.82;5.03;;;16.60;99.90;;;;;;5075355;28;25062;-72
2022/10/21 05:29:08;;;;;;;11.80;4.97;;;16.60;99.90;;;;;;5055470;28;25130;-73
2022/10/21 05:31:34;;;;;;;8.25;4.93;;;16.60;99.90;;;;;;5066030;28;25072;-73
2022/10/21 05:33:59;;;;;;;10.13;4.80;;;16.60;99.90;;;;;;5066027;28;25063;-73
2022/10/21 05:36:25;;;;;;;11.35;4.95;;;16.70;99.90;;;;;;5073839;28;25080;-73
2022/10/21 05:38:51;;;;;;;14.60;5.10;;;16.70;99.90;;;;;;5077483;28;25075;-73
2022/10/21 05:41:17;;;;;;;10.65;4.68;;;16.60;99.90;;;;;;5057452;28;25049;-73
2022/10/21 05:43:43;;;;;;;8.73;5.65;;;16.60;99.90;;;;;;5079923;28;25048;-73
2022/10/21 05:46:08;;;;;;;8.07;4.50;;;16.50;99.90;;;;;;5063693;28;25074;-73
2022/10/21 05:48:35;;;;;;;11.45;4.57;;;16.50;99.90;;;;;;5056006;28;25087;-73
2022/10/21 05:51:01;;;;;;;8.50;5.13;;;16.60;99.90;;;;;;5076716;28;25140;-72
2022/10/21 05:53:26;;;;;;;14.73;4.95;;;16.50;99.90;;;;;;5077284;28;25069;-73
2022/10/21 05:56:03;;;;;;;10.85;5.18;;;16.40;99.90;;;;;;5079744;28;25092;-73
2022/10/21 05:58:31;;;;;;;11.68;4.63;;;16.20;99.90;;;;;;5072358;28;25103;-73
2022/10/21 06:00:57;;;;;;;12.05;5.43;;;16.20;99.90;;;;;;5080036;28;25071;-77
2022/10/21 06:03:30;;;;;;;11.50;6.68;;;16.30;99.90;;;;;;5079470;28;25151;-74
2022/10/21 06:05:57;;;;;;;16.25;6.43;;;16.30;99.90;;;;;;5073939;28;25127;-75
2022/10/21 06:08:23;;;;;;;12.60;6.20;;;16.30;99.90;;;;;;5073440;28;25060;-76
2022/10/21 06:10:49;;;;;;;12.68;5.95;;;16.40;99.90;;;;;;5082307;28;25066;-78
2022/10/21 06:13:14;;;;;;;13.02;5.88;;;16.40;99.90;;;;;;5068524;28;25076;-75
2022/10/21 06:15:40;;;;;;;15.27;6.15;;;16.40;99.90;;;;;;5077073;28;25065;-75
2022/10/21 06:18:06;;;;;;;10.80;5.20;;;16.50;99.90;;;;;;5076624;28;25097;-75
2022/10/21 06:20:31;;;;;;;11.85;5.97;;;16.50;99.90;;;;;;5071596;28;25064;-74
2022/10/21 06:23:00;;;;;;;14.88;6.95;;;16.70;99.90;;;;;;5057721;28;25145;-77
2022/10/21 06:25:26;;;;;;;12.43;5.90;;;16.60;99.90;;;;;;5067970;28;25136;-76
2022/10/21 06:27:52;;;;;;;15.93;6.00;;;16.50;99.90;;;;;;5055186;28;25077;-77
2022/10/21 06:30:18;;;;;;;14.25;6.72;;;16.50;99.90;;;;;;5039656;28;25056;-78
2022/10/21 06:32:43;;;;;;;18.52;6.55;;;16.70;99.90;;;;;;5058121;28;25119;-76
2022/10/21 06:35:09;;;;;;;13.93;6.57;;;16.70;99.90;;;;;;5061988;28;25081;-75
2022/10/21 06:37:35;;;;;;;10.77;6.47;;;16.60;99.90;;;;;;5056236;28;25144;-77
2022/10/21 06:40:00;;;;;;;12.63;6.38;;;16.50;99.90;;;;;;5059817;28;25111;-74
2022/10/21 06:42:26;;;;;;;10.88;6.65;;;16.50;99.90;;;;;;5055963;28;25102;-75
2022/10/21 06:44:51;;;;;;;9.65;5.90;;;16.60;99.90;;;;;;5076653;28;25063;-75
2022/10/21 06:47:17;;;;;;;10.20;5.75;;;16.70;99.90;;;;;;5074339;28;25046;-76
2022/10/21 06:49:42;;;;;;;13.38;6.38;;;16.60;99.90;;;;;;5075961;28;25078;-75
2022/10/21 06:52:08;;;;;;;13.05;5.88;;;16.50;99.90;;;;;;5099286;28;25106;-76
2022/10/21 06:54:34;;;;;;;12.63;5.53;;;16.40;99.90;;;;;;5104240;28;25074;-76
2022/10/21 06:56:59;;;;;;;9.43;5.47;;;16.50;99.90;;;;;;5099182;28;25048;-79
2022/10/21 06:59:25;;;;;;;11.55;5.85;;;16.40;99.90;;;;;;5100003;28;25072;-77
2022/10/21 07:01:50;;;;;;;14.25;5.95;;;16.60;99.90;;;;;;5074204;28;26187;-76
2022/10/21 07:04:16;;;;;;;11.18;5.03;;;16.60;99.90;;;;;;5077509;28;25075;-76
2022/10/21 07:06:41;;;;;;;11.70;4.88;;;16.60;99.90;;;;;;5073999;28;25073;-77
2022/10/21 07:09:08;;;;;;;8.15;5.13;;;16.50;99.90;;;;;;5074730;28;25076;-76
2022/10/21 07:11:34;;;;;;;9.60;5.28;;;16.60;99.90;;;;;;5075833;28;25106;-76
2022/10/21 07:14:00;;;;;;;13.48;5.68;;;16.70;99.90;;;;;;5057600;28;25090;-76
2022/10/21 07:16:29;;;;;;;8.98;5.35;;;16.70;99.90;;;;;;5073835;28;25096;-76
2022/10/21 07:18:55;;;;;;;12.75;5.03;;;16.60;99.90;;;;;;5065355;28;25052;-76
2022/10/21 07:21:23;;;;;;;7.90;4.72;;;16.90;99.90;;;;;;5069122;28;25082;-77
2022/10/21 07:23:50;;;;;;;12.98;5.18;;;16.80;99.90;;;;;;5074518;28;25088;-77
2022/10/21 07:26:15;;;;;;;14.35;5.88;;;16.90;99.90;;;;;;5061983;28;25065;-78
2022/10/21 07:28:45;;;;;;;12.23;4.65;;;16.90;99.90;;;;;;5065080;28;25054;-77
2022/10/21 07:31:11;;;;;;;10.10;4.97;;;16.90;99.90;;;;;;5060923;28;25056;-76
2022/10/21 07:33:37;;;;;;;13.95;6.75;;;16.70;99.90;;;;;;5061274;28;25092;-76
2022/10/21 07:36:18;;;;;;;11.27;4.57;;;16.70;99.90;;;;;;5073523;28;25089;-76
2022/10/21 07:38:48;;;;;;;7.68;4.25;;;16.80;99.90;;;;;;5052085;28;25070;-79
2022/10/21 07:41:24;;;;;;;11.23;5.05;;;16.70;99.90;;;;;;5070073;28;25091;-75
2022/10/21 07:43:51;;;;;;;17.08;4.85;;;16.90;99.90;;;;;;5074236;28;25201;-75
2022/10/21 07:46:18;;;;;;;10.95;4.70;;;16.90;99.90;;;;;;5068768;28;25054;-78
2022/10/21 07:48:44;;;;;;;9.48;5.00;;;17.00;99.90;;;;;;5075134;28;25094;-76
2022/10/21 07:51:12;;;;;;;9.27;4.60;;;16.80;99.90;;;;;;5069767;28;25077;-77
2022/10/21 07:53:38;;;;;;;11.18;4.93;;;16.80;99.90;;;;;;5066077;28;25084;-77
2022/10/21 07:56:14;;;;;;;14.35;4.57;;;17.00;99.90;;;;;;5073385;28;25126;-79
2022/10/21 07:58:41;;;;;;;8.73;4.65;;;17.00;99.90;;;;;;5051210;28;25062;-75
2022/10/21 08:01:09;;;;;;;12.07;4.45;;;17.10;99.90;;;;;;5076884;28;25117;-77
2022/10/21 08:03:35;;;;;;;9.63;4.97;;;17.10;99.90;;;;;;5063331;28;25100;-76
2022/10/21 08:06:00;;;;;;;9.02;4.22;;;17.20;99.90;;;;;;5051203;28;25137;-75
2022/10/21 08:08:26;;;;;;;13.15;4.82;;;17.20;99.90;;;;;;5051014;28;25071;-76
2022/10/21 08:10:53;;;;;;;13.00;4.45;;;17.40;99.90;;;;;;5054912;28;25581;-77
2022/10/21 08:13:19;;;;;;;9.25;5.13;;;17.40;99.90;;;;;;5059269;28;25148;-76
2022/10/21 08:15:47;;;;;;;11.43;5.22;;;17.40;99.90;;;;;;5056363;28;25096;-78
2022/10/21 08:18:13;;;;;;;9.27;4.15;;;17.40;99.90;;;;;;5069608;28;25068;-77
2022/10/21 08:20:43;;;;;;;10.18;4.50;;;17.40;99.90;;;;;;5064805;28;25109;-76
2022/10/21 08:23:10;;;;;;;10.90;4.93;;;17.60;99.90;;;;;;5078199;28;25104;-77
2022/10/21 08:25:37;;;;;;;9.77;5.20;;;17.50;99.90;;;;;;5068100;28;25137;-76
2022/10/21 08:28:04;;;;;;;6.95;4.85;;;17.60;99.90;;;;;;5075422;28;25087;-76
2022/10/21 08:30:31;;;;;;;6.47;4.03;;;17.60;99.90;;;;;;5080258;28;25078;-77
2022/10/21 08:32:59;;;;;;;7.82;4.72;;;17.60;99.90;;;;;;5072915;28;25073;-76
2022/10/21 08:35:26;;;;;;;11.77;4.47;;;17.50;99.90;;;;;;5079618;28;25046;-75
2022/10/21 08:37:52;;;;;;;10.98;4.50;;;17.50;99.90;;;;;;5070007;28;25057;-76
2022/10/21 08:40:19;;;;;;;7.72;4.47;;;17.50;99.90;;;;;;5074337;28;25064;-76
2022/10/21 08:42:45;;;;;;;9.88;4.60;;;17.40;99.90;;;;;;5069140;28;25084;-79
2022/10/21 08:45:27;;;;;;;12.70;4.78;;;17.50;99.90;;;;;;5074596;28;25054;-75
2022/10/21 08:47:58;;;;;;;8.23;5.22;;;17.60;99.90;;;;;;5052499;28;25184;-76
2022/10/21 08:50:29;;;;;;;14.18;4.85;;;17.80;99.90;;;;;;5056888;28;25058;-76
2022/10/21 08:53:10;;;;;;;9.63;4.95;;;17.70;99.90;;;;;;5045207;28;25061;-78
2022/10/21 08:55:41;;;;;;;8.70;3.80;;;17.70;99.90;;;;;;5069136;28;25078;-76
2022/10/21 08:58:17;;;;;;;4.60;3.17;;;17.60;99.90;;;;;;5078362;28;25138;-78
2022/10/21 09:00:45;;;;;;;11.60;5.57;;;17.70;99.90;;;;;;5060595;28;25101;-78
2022/10/21 09:03:23;;;;;;;7.53;4.22;;;17.80;99.90;;;;;;5077586;28;25097;-77
2022/10/21 09:06:26;;;;;;;8.52;4.10;;;17.80;99.90;;;;;;5075545;28;25055;-76
2022/10/21 09:09:17;;;;;;;5.82;3.72;;;17.80;99.90;;;;;;5078861;28;25124;-75
2022/10/21 09:12:02;;;;;;;8.50;3.90;;;17.70;99.90;;;;;;5055557;28;25071;-76
2022/10/21 09:14:47;;;;;;;7.53;3.35;;;17.80;99.90;;;;;;5074357;28;25071;-77
2022/10/21 09:17:22;;;;;;;8.70;4.18;;;17.80;99.90;;;;;;5067853;28;25107;-76
2022/10/21 09:20:01;;;;;;;11.07;4.60;;;17.80;99.90;;;;;;5056942;28;25080;-75
2022/10/21 09:22:57;;;;;;;12.75;3.92;;;17.90;99.90;;;;;;5069559;28;25116;-76
2022/10/21 09:25:43;;;;;;;9.98;4.22;;;18.00;99.90;;;;;;5073465;28;25083;-76
2022/10/21 09:28:12;;;;;;;8.25;3.80;;;18.00;99.90;;;;;;5065949;28;25057;-78
2022/10/21 09:30:39;;;;;;;10.35;3.92;;;18.00;99.90;;;;;;5090439;28;25101;-80
2022/10/21 09:33:14;;;;;;;13.32;3.85;;;18.00;99.90;;;;;;5077893;28;25059;-78
2022/10/21 09:35:50;;;;;;;8.70;3.35;;;18.20;99.90;;;;;;5080302;28;25048;-76
2022/10/21 09:38:27;;;;;;;10.70;3.38;;;18.20;99.90;;;;;;5080963;28;25118;-76
2022/10/21 09:41:00;;;;;;;9.40;3.75;;;18.30;99.90;;;;;;5083599;28;25058;-76
2022/10/21 09:43:26;;;;;;;6.05;3.40;;;18.30;99.90;;;;;;5084796;28;25075;-77
2022/10/21 09:45:52;;;;;;;7.95;3.08;;;18.50;99.90;;;;;;5075761;28;25072;-77
2022/10/21 09:48:18;;;;;;;8.27;3.30;;;18.40;99.90;;;;;;5074856;28;25069;-78
2022/10/21 09:50:46;;;;;;;5.25;3.50;;;18.50;99.90;;;;;;5071281;28;25103;-77
2022/10/21 09:53:33;;;;;;;9.02;2.60;;;18.60;99.90;;;;;;5078824;28;25135;-77
2022/10/21 09:56:03;;;;;;;5.63;3.05;;;18.60;99.90;;;;;;5056248;28;25073;-76
2022/10/21 09:58:38;;;;;;;9.75;2.97;;;18.50;99.90;;;;;;5080520;28;25072;-75
2022/10/21 10:01:06;;;;;;;8.73;2.28;;;18.50;99.90;;;;;;5078502;28;25113;-79
2022/10/21 10:03:51;;;;;;;3.08;2.28;;;18.50;99.90;;;;;;5072465;28;25069;-77
2022/10/21 10:06:35;;;;;;;5.72;2.45;;;18.50;99.90;;;;;;5075346;28;25057;-76
2022/10/21 10:09:14;;;;;;;6.85;3.47;;;18.60;99.90;;;;;;5053183;28;25097;-77
2022/10/21 10:11:52;;;;;;;5.63;2.58;;;18.60;99.90;;;;;;5077915;28;25057;-75
2022/10/21 10:14:29;;;;;;;6.93;2.90;;;18.60;99.90;;;;;;5070765;28;25074;-76
2022/10/21 10:16:56;;;;;;;5.45;2.20;;;18.60;99.90;;;;;;5065913;28;25060;-76
2022/10/21 10:19:26;;;;;;;4.80;2.47;;;18.60;99.90;;;;;;5075702;28;25102;-77
2022/10/21 10:22:13;;;;;;;5.60;2.50;;;18.80;99.90;;;;;;5074540;28;25154;-79
2022/10/21 10:24:40;;;;;;;4.40;2.50;;;18.90;99.90;;;;;;5063404;28;25120;-76
2022/10/21 10:27:12;;;;;;;6.00;2.13;;;18.70;99.90;;;;;;5070485;28;25129;-77
2022/10/21 10:29:41;;;;;;;2.25;1.83;;;18.70;99.90;;;;;;5069917;28;25160;-75
2022/10/21 10:32:13;;;;;;;5.82;2.15;;;18.70;99.90;;;;;;5081927;28;25097;-75
2022/10/21 10:34:54;;;;;;;4.90;2.35;;;18.60;99.90;;;;;;5049186;28;25053;-76
2022/10/21 10:37:26;;;;;;;8.07;2.38;;;18.60;99.90;;;;;;5070773;28;25193;-77
2022/10/21 10:39:55;;;;;;;6.68;3.15;;;18.60;99.90;;;;;;5052198;28;25073;-75
2022/10/21 10:42:30;;;;;;;10.20;2.92;;;18.70;99.90;;;;;;5070779;28;25061;-76
2022/10/21 10:45:01;;;;;;;5.55;2.58;;;18.70;99.90;;;;;;5063178;28;25057;-75
2022/10/21 10:47:40;;;;;;;12.73;3.22;;;18.60;99.90;;;;;;5081014;28;25140;-75
2022/10/21 10:50:39;;;;;;;8.68;2.50;;;18.80;99.90;;;;;;5070392;28;25089;-77
2022/10/21 10:53:20;;;;;;;8.70;2.78;;;18.90;99.90;;;;;;5050599;28;25081;-78
2022/10/21 10:55:56;;;;;;;10.90;2.92;;;18.90;99.90;;;;;;5079195;28;25076;-76
2022/10/21 10:58:25;;;;;;;7.57;2.95;;;19.00;99.90;;;;;;5081536;28;25098;-77
2022/10/21 11:00:54;;;;;;;6.35;2.90;;;19.10;99.90;;;;;;5078185;28;25072;-75
2022/10/21 11:03:39;;;;;;;4.75;2.30;;;19.30;99.90;;;;;;5078584;28;25069;-76
2022/10/21 11:06:16;;;;;;;6.57;2.60;;;19.30;99.90;;;;;;5046248;28;25050;-77
2022/10/21 11:08:51;;;;;;;7.50;2.72;;;19.40;99.90;;;;;;5076228;28;25136;-76
2022/10/21 11:11:19;;;;;;;9.13;3.67;;;19.50;99.90;;;;;;5064122;28;25070;-78
2022/10/21 11:13:45;;;;;;;6.68;3.20;;;19.60;99.90;;;;;;5076676;28;25065;-79
2022/10/21 11:16:40;;;;;;;8.48;2.65;;;19.60;99.90;;;;;;5067230;28;25159;-77
2022/10/21 11:19:24;;;;;;;5.32;2.90;;;20.00;99.90;;;;;;5080170;28;25080;-78
2022/10/21 11:21:53;;;;;;;6.55;2.70;;;20.10;99.90;;;;;;5071625;28;25133;-76
2022/10/21 11:24:19;;;;;;;5.45;2.67;;;20.00;99.90;;;;;;5081711;28;25068;-77
2022/10/21 11:27:23;;;;;;;7.18;2.47;;;20.00;99.90;;;;;;5077691;28;25112;-75
2022/10/21 11:30:04;;;;;;;3.58;2.20;;;19.80;99.90;;;;;;5077702;28;25068;-76
2022/10/21 11:32:42;;;;;;;5.90;2.47;;;19.90;99.90;;;;;;5082221;28;25072;-77
2022/10/21 11:35:43;;;;;;;4.30;2.08;;;20.00;99.90;;;;;;5070384;28;25084;-75
2022/10/21 11:38:39;;;;;;;5.72;1.60;;;19.80;99.90;;;;;;5017431;28;25075;-74
2022/10/21 11:41:36;;;;;;;2.95;1.17;;;19.50;99.90;;;;;;5076137;28;25080;-76
2022/10/21 11:44:18;;;;;;;7.25;1.25;;;19.40;99.90;;;;;;5071473;28;25077;-78
2022/10/21 11:47:22;;;;;;;3.45;1.30;;;19.60;99.90;;;;;;5067724;28;25094;-79
2022/10/21 11:50:22;;;;;;;4.82;1.63;;;19.80;99.90;;;;;;5077350;28;25178;-75
2022/10/21 11:53:26;;;;;;;4.40;1.63;;;20.00;99.90;;;;;;5074417;28;25063;-74
2022/10/21 11:56:38;;;;;;;4.97;1.60;;;20.20;99.90;;;;;;5065035;28;25065;-75
2022/10/21 11:59:22;;;;;;;2.53;1.40;;;20.30;99.90;;;;;;5069271;28;25075;-73
2022/10/21 12:01:56;;;;;;;4.65;1.60;;;20.60;99.90;;;;;;5068496;28;25087;-74
2022/10/21 12:04:49;;;;;;;2.28;1.05;;;20.70;99.90;;;;;;5072664;28;25106;-75
2022/10/21 12:07:45;;;;;;;1.75;1.10;;;20.70;99.90;;;;;;5057746;28;25101;-75
2022/10/21 12:10:38;;;;;;;5.32;1.33;;;21.10;99.90;;;;;;5062461;28;25074;-76
2022/10/21 12:13:12;;;;;;;3.75;1.40;;;20.90;99.90;;;;;;5070195;28;25061;-77
2022/10/21 12:15:42;;;;;;;3.40;0.98;;;20.40;99.90;;;;;;5070674;28;25133;-76
2022/10/21 12:18:18;;;;;;;4.80;1.48;;;20.20;99.90;;;;;;5068861;28;25132;-75
2022/10/21 12:20:47;;;;;;;2.90;1.10;;;20.10;99.90;;;;;;5062516;28;25162;-73
2022/10/21 12:23:19;;;;;;;2.15;0.88;;;20.00;99.90;;;;;;5068399;28;25151;-76
2022/10/21 12:25:51;;;;;;;6.70;1.42;;;20.00;99.90;;;;;;5067171;28;25063;-75
2022/10/21 12:28:30;;;;;;;2.50;1.17;;;19.90;99.90;;;;;;5070211;28;25081;-75
2022/10/21 12:31:13;;;;;;;2.15;1.15;;;19.80;99.90;;;;;;5064139;28;25065;-76
2022/10/21 12:33:47;;;;;;;4.90;1.10;;;20.00;99.90;;;;;;5061779;28;25068;-78
2022/10/21 12:36:13;;;;;;;1.70;1.10;;;20.20;99.90;;;;;;5051510;28;25113;-78
2022/10/21 12:38:48;;;;;;;0.85;0.70;;;20.20;99.90;;;;;;5068954;28;25075;-76
2022/10/21 12:41:23;;;;;;;5.05;1.02;;;20.40;99.90;;;;;;5053747;28;25054;-75
2022/10/21 12:44:14;;;;;;;5.60;1.40;;;20.30;99.90;;;;;;5075068;28;25150;-76
2022/10/21 12:47:25;;;;;;;2.45;0.90;;;20.30;99.90;;;;;;5049594;28;25095;-76
2022/10/21 12:50:22;;;;;;;2.30;0.98;;;20.70;99.90;;;;;;5047626;28;25080;-76
2022/10/21 12:53:16;;;;;;;2.53;1.10;;;20.90;99.90;;;;;;5018642;28;25066;-79
2022/10/21 12:55:52;;;;;;;2.72;0.85;;;21.30;99.90;;;;;;5070222;28;25048;-74
2022/10/21 12:58:18;;;;;;;4.25;1.38;;;21.30;99.90;;;;;;5070686;28;25151;-77
2022/10/21 13:00:54;;;;;;;2.47;0.80;;;21.60;99.90;;;;;;5045756;28;25068;-75
2022/10/21 13:03:22;;;;;;;2.10;0.77;;;21.70;99.90;;;;;;5072016;28;25055;-76